Aviation Digital Data Service (ADDS)

Output produced by METARs form (0719 UTC 22 August 2017)
found at http://aviationweather.gov/adds/metars/
 
KBUF 220520Z 2206/2306 18006KT P6SM SCT050 BKN200 
     FM221000 20010KT P6SM BKN100 
     FM221300 22014G23KT P6SM SCT040 BKN100 
     FM221600 23018G27KT 6SM -SHRA VCTS BKN040CB 
     FM221900 23022G32KT P6SM SCT050 BKN200 
     FM222100 23025G38KT P6SM SCT050 BKN200 
     FM230000 25018G28KT P6SM VCSH BKN050